sensor_id;sensor_type;location;lat;lon;timestamp;P1;durP1;ratioP1;P2;durP2;ratioP2
83055;SDS011;72881;43.514;1.510;2024-01-15T00:01:36;6.07;;;2.90;;
83055;SDS011;72881;43.514;1.510;2024-01-15T00:04:01;4.65;;;2.75;;
83055;SDS011;72881;43.514;1.510;2024-01-15T00:06:27;4.20;;;2.50;;
83055;SDS011;72881;43.514;1.510;2024-01-15T00:08:53;4.57;;;2.53;;
83055;SDS011;72881;43.514;1.510;2024-01-15T00:11:18;3.78;;;2.20;;
83055;SDS011;72881;43.514;1.510;2024-01-15T00:13:44;3.67;;;2.35;;
83055;SDS011;72881;43.514;1.510;2024-01-15T00:16:10;4.57;;;2.42;;
83055;SDS011;72881;43.514;1.510;2024-01-15T00:18:35;4.40;;;2.35;;
83055;SDS011;72881;43.514;1.510;2024-01-15T00:21:01;4.20;;;2.40;;
83055;SDS011;72881;43.514;1.510;2024-01-15T00:23:26;4.35;;;2.47;;
83055;SDS011;72881;43.514;1.510;2024-01-15T00:25:51;4.75;;;2.40;;
83055;SDS011;72881;43.514;1.510;2024-01-15T00:28:17;3.80;;;2.65;;
83055;SDS011;72881;43.514;1.510;2024-01-15T00:30:42;3.90;;;2.20;;
83055;SDS011;72881;43.514;1.510;2024-01-15T00:33:08;4.30;;;2.45;;
83055;SDS011;72881;43.514;1.510;2024-01-15T00:35:33;3.53;;;2.20;;
83055;SDS011;72881;43.514;1.510;2024-01-15T00:37:58;4.80;;;2.40;;
83055;SDS011;72881;43.514;1.510;2024-01-15T00:40:24;4.80;;;2.25;;
83055;SDS011;72881;43.514;1.510;2024-01-15T00:42:50;4.50;;;2.33;;
83055;SDS011;72881;43.514;1.510;2024-01-15T00:45:16;3.15;;;2.17;;
83055;SDS011;72881;43.514;1.510;2024-01-15T00:47:41;4.00;;;2.13;;
83055;SDS011;72881;43.514;1.510;2024-01-15T00:50:07;4.32;;;1.98;;
83055;SDS011;72881;43.514;1.510;2024-01-15T00:52:33;4.82;;;2.30;;
83055;SDS011;72881;43.514;1.510;2024-01-15T00:54:58;4.15;;;2.35;;
83055;SDS011;72881;43.514;1.510;2024-01-15T00:57:24;3.85;;;2.05;;
83055;SDS011;72881;43.514;1.510;2024-01-15T00:59:49;3.30;;;2.10;;
83055;SDS011;72881;43.514;1.510;2024-01-15T01:02:15;6.43;;;2.20;;
83055;SDS011;72881;43.514;1.510;2024-01-15T01:04:40;3.45;;;1.83;;
83055;SDS011;72881;43.514;1.510;2024-01-15T01:07:05;3.85;;;2.15;;
83055;SDS011;72881;43.514;1.510;2024-01-15T01:09:31;3.28;;;1.85;;
83055;SDS011;72881;43.514;1.510;2024-01-15T01:11:56;3.72;;;2.08;;
83055;SDS011;72881;43.514;1.510;2024-01-15T01:14:22;3.53;;;1.83;;
83055;SDS011;72881;43.514;1.510;2024-01-15T01:16:47;4.25;;;2.05;;
83055;SDS011;72881;43.514;1.510;2024-01-15T01:19:12;3.72;;;2.25;;
83055;SDS011;72881;43.514;1.510;2024-01-15T01:21:38;3.05;;;1.85;;
83055;SDS011;72881;43.514;1.510;2024-01-15T01:24:03;3.40;;;1.73;;
83055;SDS011;72881;43.514;1.510;2024-01-15T01:26:29;3.88;;;2.00;;
83055;SDS011;72881;43.514;1.510;2024-01-15T01:28:55;3.83;;;1.92;;
83055;SDS011;72881;43.514;1.510;2024-01-15T01:31:20;3.97;;;2.03;;
83055;SDS011;72881;43.514;1.510;2024-01-15T01:33:45;3.50;;;1.92;;
83055;SDS011;72881;43.514;1.510;2024-01-15T01:36:11;4.13;;;1.90;;
83055;SDS011;72881;43.514;1.510;2024-01-15T01:38:37;3.28;;;1.92;;
83055;SDS011;72881;43.514;1.510;2024-01-15T01:41:03;2.65;;;1.80;;
83055;SDS011;72881;43.514;1.510;2024-01-15T01:43:28;2.90;;;1.73;;
83055;SDS011;72881;43.514;1.510;2024-01-15T01:45:54;3.97;;;1.90;;
83055;SDS011;72881;43.514;1.510;2024-01-15T01:48:21;3.95;;;2.00;;
83055;SDS011;72881;43.514;1.510;2024-01-15T01:50:48;4.18;;;1.67;;
83055;SDS011;72881;43.514;1.510;2024-01-15T01:53:13;3.22;;;1.73;;
83055;SDS011;72881;43.514;1.510;2024-01-15T01:55:38;2.80;;;1.70;;
83055;SDS011;72881;43.514;1.510;2024-01-15T01:58:04;4.72;;;2.22;;
83055;SDS011;72881;43.514;1.510;2024-01-15T02:00:30;4.93;;;1.83;;
83055;SDS011;72881;43.514;1.510;2024-01-15T02:02:56;2.60;;;1.70;;
83055;SDS011;72881;43.514;1.510;2024-01-15T02:05:21;4.03;;;2.17;;
83055;SDS011;72881;43.514;1.510;2024-01-15T02:07:47;3.25;;;1.92;;
83055;SDS011;72881;43.514;1.510;2024-01-15T02:10:13;3.70;;;1.63;;
83055;SDS011;72881;43.514;1.510;2024-01-15T02:12:38;4.45;;;1.77;;
83055;SDS011;72881;43.514;1.510;2024-01-15T02:15:04;3.75;;;1.98;;
83055;SDS011;72881;43.514;1.510;2024-01-15T02:17:30;2.67;;;1.65;;
83055;SDS011;72881;43.514;1.510;2024-01-15T02:19:55;3.47;;;1.88;;
83055;SDS011;72881;43.514;1.510;2024-01-15T02:22:21;4.43;;;1.90;;
83055;SDS011;72881;43.514;1.510;2024-01-15T02:24:46;3.53;;;1.77;;
83055;SDS011;72881;43.514;1.510;2024-01-15T02:27:11;3.33;;;2.05;;
83055;SDS011;72881;43.514;1.510;2024-01-15T02:29:37;4.65;;;2.00;;
83055;SDS011;72881;43.514;1.510;2024-01-15T02:32:06;2.47;;;1.55;;
83055;SDS011;72881;43.514;1.510;2024-01-15T02:34:32;3.00;;;1.65;;
83055;SDS011;72881;43.514;1.510;2024-01-15T02:36:58;3.45;;;1.63;;
83055;SDS011;72881;43.514;1.510;2024-01-15T02:39:23;3.97;;;2.22;;
83055;SDS011;72881;43.514;1.510;2024-01-15T02:41:48;3.90;;;1.70;;
83055;SDS011;72881;43.514;1.510;2024-01-15T02:44:14;4.15;;;1.70;;
83055;SDS011;72881;43.514;1.510;2024-01-15T02:46:39;5.20;;;1.70;;
83055;SDS011;72881;43.514;1.510;2024-01-15T02:49:05;2.92;;;1.90;;
83055;SDS011;72881;43.514;1.510;2024-01-15T02:51:30;2.90;;;1.60;;
83055;SDS011;72881;43.514;1.510;2024-01-15T02:53:55;3.53;;;1.80;;
83055;SDS011;72881;43.514;1.510;2024-01-15T02:56:21;4.00;;;1.92;;
83055;SDS011;72881;43.514;1.510;2024-01-15T02:58:46;3.35;;;1.63;;
83055;SDS011;72881;43.514;1.510;2024-01-15T03:01:12;4.57;;;1.80;;
83055;SDS011;72881;43.514;1.510;2024-01-15T03:03:37;2.85;;;1.60;;
83055;SDS011;72881;43.514;1.510;2024-01-15T03:06:02;1.80;;;1.20;;
83055;SDS011;72881;43.514;1.510;2024-01-15T03:08:28;4.03;;;1.98;;
83055;SDS011;72881;43.514;1.510;2024-01-15T03:10:54;2.90;;;1.95;;
83055;SDS011;72881;43.514;1.510;2024-01-15T03:13:19;2.90;;;1.55;;
83055;SDS011;72881;43.514;1.510;2024-01-15T03:15:45;3.33;;;1.60;;
83055;SDS011;72881;43.514;1.510;2024-01-15T03:18:10;2.70;;;1.88;;
83055;SDS011;72881;43.514;1.510;2024-01-15T03:20:35;3.33;;;1.70;;
83055;SDS011;72881;43.514;1.510;2024-01-15T03:23:01;2.97;;;1.50;;
83055;SDS011;72881;43.514;1.510;2024-01-15T03:25:26;3.10;;;1.70;;
83055;SDS011;72881;43.514;1.510;2024-01-15T03:27:51;2.50;;;1.70;;
83055;SDS011;72881;43.514;1.510;2024-01-15T03:30:17;3.67;;;1.80;;
83055;SDS011;72881;43.514;1.510;2024-01-15T03:32:42;4.35;;;1.85;;
83055;SDS011;72881;43.514;1.510;2024-01-15T03:35:08;2.80;;;1.83;;
83055;SDS011;72881;43.514;1.510;2024-01-15T03:37:33;3.47;;;2.08;;
83055;SDS011;72881;43.514;1.510;2024-01-15T03:39:59;4.07;;;2.05;;
83055;SDS011;72881;43.514;1.510;2024-01-15T03:42:24;3.47;;;1.80;;
83055;SDS011;72881;43.514;1.510;2024-01-15T03:44:49;4.13;;;2.47;;
83055;SDS011;72881;43.514;1.510;2024-01-15T03:47:15;3.03;;;1.80;;
83055;SDS011;72881;43.514;1.510;2024-01-15T03:49:40;3.65;;;1.85;;
83055;SDS011;72881;43.514;1.510;2024-01-15T03:52:05;3.05;;;1.85;;
83055;SDS011;72881;43.514;1.510;2024-01-15T03:54:31;3.75;;;1.98;;
83055;SDS011;72881;43.514;1.510;2024-01-15T03:56:56;2.60;;;1.80;;
83055;SDS011;72881;43.514;1.510;2024-01-15T03:59:22;3.55;;;1.88;;
83055;SDS011;72881;43.514;1.510;2024-01-15T04:01:48;3.33;;;1.80;;
83055;SDS011;72881;43.514;1.510;2024-01-15T04:04:15;3.72;;;1.73;;
83055;SDS011;72881;43.514;1.510;2024-01-15T04:06:41;4.45;;;2.00;;
83055;SDS011;72881;43.514;1.510;2024-01-15T04:09:06;3.08;;;1.65;;
83055;SDS011;72881;43.514;1.510;2024-01-15T04:11:31;3.75;;;1.70;;
83055;SDS011;72881;43.514;1.510;2024-01-15T04:13:57;2.95;;;1.70;;
83055;SDS011;72881;43.514;1.510;2024-01-15T04:16:22;3.88;;;2.13;;
83055;SDS011;72881;43.514;1.510;2024-01-15T04:18:48;4.60;;;2.00;;
83055;SDS011;72881;43.514;1.510;2024-01-15T04:21:13;2.97;;;1.70;;
83055;SDS011;72881;43.514;1.510;2024-01-15T04:23:39;2.88;;;1.77;;
83055;SDS011;72881;43.514;1.510;2024-01-15T04:26:04;3.97;;;1.90;;
83055;SDS011;72881;43.514;1.510;2024-01-15T04:28:29;3.80;;;2.20;;
83055;SDS011;72881;43.514;1.510;2024-01-15T04:30:55;3.33;;;1.90;;
83055;SDS011;72881;43.514;1.510;2024-01-15T04:33:20;3.73;;;1.90;;
83055;SDS011;72881;43.514;1.510;2024-01-15T04:35:46;2.85;;;1.75;;
83055;SDS011;72881;43.514;1.510;2024-01-15T04:38:11;3.58;;;1.65;;
83055;SDS011;72881;43.514;1.510;2024-01-15T04:40:36;3.38;;;1.98;;
83055;SDS011;72881;43.514;1.510;2024-01-15T04:43:02;4.00;;;2.00;;
83055;SDS011;72881;43.514;1.510;2024-01-15T04:45:27;3.85;;;2.30;;
83055;SDS011;72881;43.514;1.510;2024-01-15T04:47:54;3.15;;;1.70;;
83055;SDS011;72881;43.514;1.510;2024-01-15T04:50:21;3.63;;;1.95;;
83055;SDS011;72881;43.514;1.510;2024-01-15T04:52:46;3.87;;;1.80;;
83055;SDS011;72881;43.514;1.510;2024-01-15T04:55:11;4.70;;;2.05;;
83055;SDS011;72881;43.514;1.510;2024-01-15T04:57:37;3.47;;;2.25;;
83055;SDS011;72881;43.514;1.510;2024-01-15T05:00:02;3.97;;;1.73;;
83055;SDS011;72881;43.514;1.510;2024-01-15T05:02:28;3.30;;;1.92;;
83055;SDS011;72881;43.514;1.510;2024-01-15T05:04:53;4.28;;;1.90;;
83055;SDS011;72881;43.514;1.510;2024-01-15T05:07:18;2.70;;;1.65;;
83055;SDS011;72881;43.514;1.510;2024-01-15T05:09:44;3.50;;;1.93;;
83055;SDS011;72881;43.514;1.510;2024-01-15T05:12:09;2.90;;;1.67;;
83055;SDS011;72881;43.514;1.510;2024-01-15T05:14:34;3.72;;;1.88;;
83055;SDS011;72881;43.514;1.510;2024-01-15T05:17:00;2.92;;;1.75;;
83055;SDS011;72881;43.514;1.510;2024-01-15T05:19:25;2.70;;;1.50;;
83055;SDS011;72881;43.514;1.510;2024-01-15T05:21:50;3.30;;;1.88;;
83055;SDS011;72881;43.514;1.510;2024-01-15T05:24:16;2.40;;;1.60;;
83055;SDS011;72881;43.514;1.510;2024-01-15T05:26:41;2.78;;;1.67;;
83055;SDS011;72881;43.514;1.510;2024-01-15T05:29:07;3.25;;;1.50;;
83055;SDS011;72881;43.514;1.510;2024-01-15T05:31:32;3.27;;;1.53;;
83055;SDS011;72881;43.514;1.510;2024-01-15T05:33:57;2.80;;;1.70;;
83055;SDS011;72881;43.514;1.510;2024-01-15T05:36:23;3.97;;;1.67;;
83055;SDS011;72881;43.514;1.510;2024-01-15T05:38:48;2.60;;;1.40;;
83055;SDS011;72881;43.514;1.510;2024-01-15T05:41:14;2.50;;;1.40;;
83055;SDS011;72881;43.514;1.510;2024-01-15T05:43:40;3.75;;;1.67;;
83055;SDS011;72881;43.514;1.510;2024-01-15T05:46:05;2.70;;;1.50;;
83055;SDS011;72881;43.514;1.510;2024-01-15T05:48:31;2.58;;;1.60;;
83055;SDS011;72881;43.514;1.510;2024-01-15T05:50:56;3.15;;;1.83;;
83055;SDS011;72881;43.514;1.510;2024-01-15T05:53:21;3.65;;;1.63;;
83055;SDS011;72881;43.514;1.510;2024-01-15T05:55:47;2.97;;;1.70;;
83055;SDS011;72881;43.514;1.510;2024-01-15T05:58:12;3.77;;;2.27;;
83055;SDS011;72881;43.514;1.510;2024-01-15T06:00:37;2.77;;;1.33;;
83055;SDS011;72881;43.514;1.510;2024-01-15T06:03:03;2.45;;;1.48;;
83055;SDS011;72881;43.514;1.510;2024-01-15T06:05:28;3.25;;;1.42;;
83055;SDS011;72881;43.514;1.510;2024-01-15T06:07:54;3.00;;;1.55;;
83055;SDS011;72881;43.514;1.510;2024-01-15T06:10:19;2.85;;;1.52;;
83055;SDS011;72881;43.514;1.510;2024-01-15T06:12:44;2.72;;;1.67;;
83055;SDS011;72881;43.514;1.510;2024-01-15T06:15:10;2.55;;;1.42;;
83055;SDS011;72881;43.514;1.510;2024-01-15T06:17:36;3.30;;;1.42;;
83055;SDS011;72881;43.514;1.510;2024-01-15T06:20:02;2.45;;;1.33;;
83055;SDS011;72881;43.514;1.510;2024-01-15T06:22:28;3.15;;;1.73;;
83055;SDS011;72881;43.514;1.510;2024-01-15T06:24:53;3.28;;;1.30;;
83055;SDS011;72881;43.514;1.510;2024-01-15T06:27:19;2.90;;;1.60;;
83055;SDS011;72881;43.514;1.510;2024-01-15T06:29:45;3.08;;;1.55;;
83055;SDS011;72881;43.514;1.510;2024-01-15T06:32:12;2.67;;;1.80;;
83055;SDS011;72881;43.514;1.510;2024-01-15T06:34:37;2.70;;;1.60;;
83055;SDS011;72881;43.514;1.510;2024-01-15T06:37:03;3.25;;;1.67;;
83055;SDS011;72881;43.514;1.510;2024-01-15T06:39:28;3.75;;;1.80;;
83055;SDS011;72881;43.514;1.510;2024-01-15T06:41:54;2.75;;;1.58;;
83055;SDS011;72881;43.514;1.510;2024-01-15T06:44:19;2.67;;;1.50;;
83055;SDS011;72881;43.514;1.510;2024-01-15T06:46:47;3.13;;;1.50;;
83055;SDS011;72881;43.514;1.510;2024-01-15T06:49:12;2.00;;;1.40;;
83055;SDS011;72881;43.514;1.510;2024-01-15T06:51:38;2.88;;;1.58;;
83055;SDS011;72881;43.514;1.510;2024-01-15T06:54:03;2.95;;;1.52;;
83055;SDS011;72881;43.514;1.510;2024-01-15T06:56:29;2.67;;;1.70;;
83055;SDS011;72881;43.514;1.510;2024-01-15T06:58:55;3.13;;;1.55;;
83055;SDS011;72881;43.514;1.510;2024-01-15T07:01:20;3.33;;;1.70;;
83055;SDS011;72881;43.514;1.510;2024-01-15T07:03:45;4.13;;;1.77;;
83055;SDS011;72881;43.514;1.510;2024-01-15T07:06:11;3.13;;;1.85;;
83055;SDS011;72881;43.514;1.510;2024-01-15T07:08:37;4.72;;;2.20;;
83055;SDS011;72881;43.514;1.510;2024-01-15T07:11:03;4.50;;;1.92;;
83055;SDS011;72881;43.514;1.510;2024-01-15T07:13:29;3.28;;;1.90;;
83055;SDS011;72881;43.514;1.510;2024-01-15T07:15:54;3.07;;;1.70;;
83055;SDS011;72881;43.514;1.510;2024-01-15T07:18:19;3.55;;;1.65;;
83055;SDS011;72881;43.514;1.510;2024-01-15T07:20:45;3.42;;;1.83;;
83055;SDS011;72881;43.514;1.510;2024-01-15T07:23:10;3.20;;;2.03;;
83055;SDS011;72881;43.514;1.510;2024-01-15T07:25:36;4.10;;;2.03;;
83055;SDS011;72881;43.514;1.510;2024-01-15T07:28:01;3.35;;;2.10;;
83055;SDS011;72881;43.514;1.510;2024-01-15T07:30:28;2.60;;;1.83;;
83055;SDS011;72881;43.514;1.510;2024-01-15T07:32:54;3.92;;;2.00;;
83055;SDS011;72881;43.514;1.510;2024-01-15T07:35:19;3.80;;;1.95;;
83055;SDS011;72881;43.514;1.510;2024-01-15T07:37:45;4.00;;;2.03;;
83055;SDS011;72881;43.514;1.510;2024-01-15T07:40:11;3.83;;;2.20;;
83055;SDS011;72881;43.514;1.510;2024-01-15T07:42:37;4.30;;;2.30;;
83055;SDS011;72881;43.514;1.510;2024-01-15T07:45:03;4.13;;;2.40;;
83055;SDS011;72881;43.514;1.510;2024-01-15T07:47:28;3.90;;;2.08;;
83055;SDS011;72881;43.514;1.510;2024-01-15T07:49:53;3.60;;;1.90;;
83055;SDS011;72881;43.514;1.510;2024-01-15T07:52:19;6.00;;;2.40;;
83055;SDS011;72881;43.514;1.510;2024-01-15T07:54:45;3.78;;;2.30;;
83055;SDS011;72881;43.514;1.510;2024-01-15T07:57:10;5.03;;;2.17;;
83055;SDS011;72881;43.514;1.510;2024-01-15T07:59:36;3.67;;;2.40;;
83055;SDS011;72881;43.514;1.510;2024-01-15T08:02:01;4.80;;;2.50;;
83055;SDS011;72881;43.514;1.510;2024-01-15T08:04:27;3.75;;;2.55;;
83055;SDS011;72881;43.514;1.510;2024-01-15T08:06:53;5.53;;;2.42;;
83055;SDS011;72881;43.514;1.510;2024-01-15T08:09:19;4.65;;;2.30;;
83055;SDS011;72881;43.514;1.510;2024-01-15T08:11:44;3.92;;;2.30;;
83055;SDS011;72881;43.514;1.510;2024-01-15T08:14:10;3.70;;;2.42;;
83055;SDS011;72881;43.514;1.510;2024-01-15T08:16:36;4.50;;;2.50;;
83055;SDS011;72881;43.514;1.510;2024-01-15T08:19:02;3.83;;;2.35;;
83055;SDS011;72881;43.514;1.510;2024-01-15T08:21:28;5.18;;;2.95;;
83055;SDS011;72881;43.514;1.510;2024-01-15T08:23:57;4.60;;;2.50;;
83055;SDS011;72881;43.514;1.510;2024-01-15T08:26:23;5.50;;;2.92;;
83055;SDS011;72881;43.514;1.510;2024-01-15T08:28:48;4.25;;;2.45;;
83055;SDS011;72881;43.514;1.510;2024-01-15T08:31:14;4.28;;;2.38;;
83055;SDS011;72881;43.514;1.510;2024-01-15T08:33:39;4.22;;;2.70;;
83055;SDS011;72881;43.514;1.510;2024-01-15T08:36:05;3.55;;;2.28;;
83055;SDS011;72881;43.514;1.510;2024-01-15T08:38:30;4.35;;;2.50;;
83055;SDS011;72881;43.514;1.510;2024-01-15T08:40:56;4.25;;;2.65;;
83055;SDS011;72881;43.514;1.510;2024-01-15T08:43:24;3.50;;;2.00;;
83055;SDS011;72881;43.514;1.510;2024-01-15T08:45:49;5.00;;;2.70;;
83055;SDS011;72881;43.514;1.510;2024-01-15T08:48:16;3.67;;;2.40;;
83055;SDS011;72881;43.514;1.510;2024-01-15T08:50:41;4.20;;;2.53;;
83055;SDS011;72881;43.514;1.510;2024-01-15T08:53:07;3.30;;;2.25;;
83055;SDS011;72881;43.514;1.510;2024-01-15T08:55:32;3.85;;;2.35;;
83055;SDS011;72881;43.514;1.510;2024-01-15T08:57:58;4.18;;;2.50;;
83055;SDS011;72881;43.514;1.510;2024-01-15T09:00:23;3.83;;;2.42;;
83055;SDS011;72881;43.514;1.510;2024-01-15T09:02:48;4.03;;;2.35;;
83055;SDS011;72881;43.514;1.510;2024-01-15T09:05:14;4.23;;;2.57;;
83055;SDS011;72881;43.514;1.510;2024-01-15T09:07:39;4.68;;;2.60;;
83055;SDS011;72881;43.514;1.510;2024-01-15T09:10:05;4.60;;;2.72;;
83055;SDS011;72881;43.514;1.510;2024-01-15T09:12:31;3.72;;;2.58;;
83055;SDS011;72881;43.514;1.510;2024-01-15T09:14:57;3.30;;;2.40;;
83055;SDS011;72881;43.514;1.510;2024-01-15T09:17:22;3.97;;;2.60;;
83055;SDS011;72881;43.514;1.510;2024-01-15T09:19:53;3.65;;;2.40;;
83055;SDS011;72881;43.514;1.510;2024-01-15T09:22:18;4.00;;;2.63;;
83055;SDS011;72881;43.514;1.510;2024-01-15T09:24:44;4.72;;;3.00;;
83055;SDS011;72881;43.514;1.510;2024-01-15T09:27:12;4.72;;;2.45;;
83055;SDS011;72881;43.514;1.510;2024-01-15T09:29:38;4.40;;;2.53;;
83055;SDS011;72881;43.514;1.510;2024-01-15T09:32:07;3.78;;;2.50;;
83055;SDS011;72881;43.514;1.510;2024-01-15T09:34:38;4.28;;;2.80;;
83055;SDS011;72881;43.514;1.510;2024-01-15T09:37:04;4.90;;;2.80;;
83055;SDS011;72881;43.514;1.510;2024-01-15T09:39:30;4.07;;;2.45;;
83055;SDS011;72881;43.514;1.510;2024-01-15T09:41:55;3.92;;;2.78;;
83055;SDS011;72881;43.514;1.510;2024-01-15T09:44:21;4.15;;;2.42;;
83055;SDS011;72881;43.514;1.510;2024-01-15T09:46:46;4.03;;;2.53;;
83055;SDS011;72881;43.514;1.510;2024-01-15T09:49:15;4.40;;;2.70;;
83055;SDS011;72881;43.514;1.510;2024-01-15T09:51:41;3.95;;;2.70;;
83055;SDS011;72881;43.514;1.510;2024-01-15T09:54:08;3.67;;;2.40;;
83055;SDS011;72881;43.514;1.510;2024-01-15T09:56:34;5.35;;;2.88;;
83055;SDS011;72881;43.514;1.510;2024-01-15T09:59:00;4.78;;;2.95;;
83055;SDS011;72881;43.514;1.510;2024-01-15T10:01:26;4.93;;;2.95;;
83055;SDS011;72881;43.514;1.510;2024-01-15T10:03:51;4.35;;;2.95;;
83055;SDS011;72881;43.514;1.510;2024-01-15T10:06:18;4.57;;;2.60;;
83055;SDS011;72881;43.514;1.510;2024-01-15T10:08:48;4.15;;;2.55;;
83055;SDS011;72881;43.514;1.510;2024-01-15T10:11:14;6.07;;;3.00;;
83055;SDS011;72881;43.514;1.510;2024-01-15T10:13:40;4.60;;;2.80;;
83055;SDS011;72881;43.514;1.510;2024-01-15T10:16:05;5.93;;;2.92;;
83055;SDS011;72881;43.514;1.510;2024-01-15T10:18:31;5.72;;;2.72;;
83055;SDS011;72881;43.514;1.510;2024-01-15T10:20:57;5.03;;;2.95;;
83055;SDS011;72881;43.514;1.510;2024-01-15T10:23:23;4.25;;;2.50;;
83055;SDS011;72881;43.514;1.510;2024-01-15T10:25:48;4.90;;;2.90;;
83055;SDS011;72881;43.514;1.510;2024-01-15T10:28:14;4.20;;;2.72;;
83055;SDS011;72881;43.514;1.510;2024-01-15T10:30:41;3.95;;;2.63;;
83055;SDS011;72881;43.514;1.510;2024-01-15T10:33:06;4.07;;;2.70;;
83055;SDS011;72881;43.514;1.510;2024-01-15T10:35:32;4.55;;;2.70;;
83055;SDS011;72881;43.514;1.510;2024-01-15T10:37:59;5.18;;;2.70;;
83055;SDS011;72881;43.514;1.510;2024-01-15T10:40:25;4.00;;;2.70;;
83055;SDS011;72881;43.514;1.510;2024-01-15T10:42:51;4.43;;;2.60;;
83055;SDS011;72881;43.514;1.510;2024-01-15T10:45:17;3.95;;;2.60;;
83055;SDS011;72881;43.514;1.510;2024-01-15T10:47:42;4.28;;;2.70;;
83055;SDS011;72881;43.514;1.510;2024-01-15T10:50:10;4.05;;;2.78;;
83055;SDS011;72881;43.514;1.510;2024-01-15T10:52:36;3.45;;;2.58;;
83055;SDS011;72881;43.514;1.510;2024-01-15T10:55:03;3.65;;;2.63;;
83055;SDS011;72881;43.514;1.510;2024-01-15T10:57:29;4.57;;;2.55;;
83055;SDS011;72881;43.514;1.510;2024-01-15T10:59:55;3.63;;;2.42;;
83055;SDS011;72881;43.514;1.510;2024-01-15T11:02:21;4.10;;;2.45;;
83055;SDS011;72881;43.514;1.510;2024-01-15T11:04:46;3.83;;;2.53;;
83055;SDS011;72881;43.514;1.510;2024-01-15T11:07:12;6.15;;;2.85;;
83055;SDS011;72881;43.514;1.510;2024-01-15T11:09:38;3.90;;;2.53;;
83055;SDS011;72881;43.514;1.510;2024-01-15T11:12:08;3.40;;;2.30;;
83055;SDS011;72881;43.514;1.510;2024-01-15T11:14:39;4.65;;;2.65;;
83055;SDS011;72881;43.514;1.510;2024-01-15T11:17:08;3.72;;;2.47;;
83055;SDS011;72881;43.514;1.510;2024-01-15T11:19:47;3.78;;;2.65;;
83055;SDS011;72881;43.514;1.510;2024-01-15T11:24:56;5.15;;;2.72;;
83055;SDS011;72881;43.514;1.510;2024-01-15T11:30:10;4.22;;;2.63;;
83055;SDS011;72881;43.514;1.510;2024-01-15T11:32:36;8.35;;;2.80;;
83055;SDS011;72881;43.514;1.510;2024-01-15T11:35:02;5.75;;;2.70;;
83055;SDS011;72881;43.514;1.510;2024-01-15T11:40:17;5.30;;;3.03;;
83055;SDS011;72881;43.514;1.510;2024-01-15T11:42:47;7.45;;;3.08;;
83055;SDS011;72881;43.514;1.510;2024-01-15T11:50:24;5.20;;;2.63;;
83055;SDS011;72881;43.514;1.510;2024-01-15T11:52:59;4.88;;;2.72;;
83055;SDS011;72881;43.514;1.510;2024-01-15T11:55:27;6.43;;;2.83;;
83055;SDS011;72881;43.514;1.510;2024-01-15T11:57:55;5.70;;;2.83;;
83055;SDS011;72881;43.514;1.510;2024-01-15T12:00:21;5.65;;;2.90;;
83055;SDS011;72881;43.514;1.510;2024-01-15T12:02:47;4.30;;;2.63;;
83055;SDS011;72881;43.514;1.510;2024-01-15T12:05:17;4.70;;;2.80;;
83055;SDS011;72881;43.514;1.510;2024-01-15T12:07:43;4.05;;;2.55;;
83055;SDS011;72881;43.514;1.510;2024-01-15T12:10:13;6.22;;;3.17;;
83055;SDS011;72881;43.514;1.510;2024-01-15T12:15:20;5.60;;;2.70;;
83055;SDS011;72881;43.514;1.510;2024-01-15T12:17:46;5.28;;;2.80;;
83055;SDS011;72881;43.514;1.510;2024-01-15T12:20:12;3.63;;;2.75;;
83055;SDS011;72881;43.514;1.510;2024-01-15T12:22:38;3.92;;;2.83;;
83055;SDS011;72881;43.514;1.510;2024-01-15T12:25:04;4.15;;;2.65;;
83055;SDS011;72881;43.514;1.510;2024-01-15T12:27:30;5.25;;;2.70;;
83055;SDS011;72881;43.514;1.510;2024-01-15T12:29:55;4.10;;;2.55;;
83055;SDS011;72881;43.514;1.510;2024-01-15T12:32:21;3.50;;;2.55;;
83055;SDS011;72881;43.514;1.510;2024-01-15T12:34:49;4.65;;;2.72;;
83055;SDS011;72881;43.514;1.510;2024-01-15T12:37:15;3.75;;;2.60;;
83055;SDS011;72881;43.514;1.510;2024-01-15T12:39:43;4.05;;;2.80;;
83055;SDS011;72881;43.514;1.510;2024-01-15T12:42:09;3.65;;;2.58;;
83055;SDS011;72881;43.514;1.510;2024-01-15T12:44:35;4.55;;;2.83;;
83055;SDS011;72881;43.514;1.510;2024-01-15T12:47:03;3.35;;;2.50;;
83055;SDS011;72881;43.514;1.510;2024-01-15T12:49:29;3.90;;;2.47;;
83055;SDS011;72881;43.514;1.510;2024-01-15T12:51:56;5.13;;;3.17;;
83055;SDS011;72881;43.514;1.510;2024-01-15T12:54:22;4.28;;;2.70;;
83055;SDS011;72881;43.514;1.510;2024-01-15T12:56:49;3.88;;;2.60;;
83055;SDS011;72881;43.514;1.510;2024-01-15T12:59:14;4.43;;;2.75;;
83055;SDS011;72881;43.514;1.510;2024-01-15T13:01:40;3.90;;;2.60;;
83055;SDS011;72881;43.514;1.510;2024-01-15T13:04:06;3.95;;;2.70;;
83055;SDS011;72881;43.514;1.510;2024-01-15T13:06:34;4.00;;;2.80;;
83055;SDS011;72881;43.514;1.510;2024-01-15T13:08:59;3.78;;;2.42;;
83055;SDS011;72881;43.514;1.510;2024-01-15T13:11:25;3.97;;;2.38;;
83055;SDS011;72881;43.514;1.510;2024-01-15T13:13:52;3.40;;;2.53;;
83055;SDS011;72881;43.514;1.510;2024-01-15T13:16:17;4.25;;;3.00;;
83055;SDS011;72881;43.514;1.510;2024-01-15T13:18:42;4.25;;;2.88;;
83055;SDS011;72881;43.514;1.510;2024-01-15T13:21:08;5.32;;;2.85;;
83055;SDS011;72881;43.514;1.510;2024-01-15T13:23:33;4.60;;;2.63;;
83055;SDS011;72881;43.514;1.510;2024-01-15T13:25:59;3.50;;;2.40;;
83055;SDS011;72881;43.514;1.510;2024-01-15T13:28:24;4.18;;;2.63;;
83055;SDS011;72881;43.514;1.510;2024-01-15T13:30:49;3.55;;;2.30;;
83055;SDS011;72881;43.514;1.510;2024-01-15T13:33:15;3.10;;;2.33;;
83055;SDS011;72881;43.514;1.510;2024-01-15T13:35:40;3.35;;;2.42;;
83055;SDS011;72881;43.514;1.510;2024-01-15T13:38:08;4.22;;;2.65;;
83055;SDS011;72881;43.514;1.510;2024-01-15T13:40:34;4.20;;;2.70;;
83055;SDS011;72881;43.514;1.510;2024-01-15T13:42:59;3.65;;;2.53;;
83055;SDS011;72881;43.514;1.510;2024-01-15T13:45:25;3.67;;;2.40;;
83055;SDS011;72881;43.514;1.510;2024-01-15T13:47:51;3.33;;;2.38;;
83055;SDS011;72881;43.514;1.510;2024-01-15T13:50:16;3.58;;;2.50;;
83055;SDS011;72881;43.514;1.510;2024-01-15T13:52:42;2.97;;;2.10;;
83055;SDS011;72881;43.514;1.510;2024-01-15T13:55:07;3.30;;;2.22;;
83055;SDS011;72881;43.514;1.510;2024-01-15T13:57:33;4.13;;;2.30;;
83055;SDS011;72881;43.514;1.510;2024-01-15T13:59:59;3.03;;;2.22;;
83055;SDS011;72881;43.514;1.510;2024-01-15T14:02:25;3.53;;;2.17;;
83055;SDS011;72881;43.514;1.510;2024-01-15T14:04:50;2.85;;;2.17;;
83055;SDS011;72881;43.514;1.510;2024-01-15T14:07:16;2.50;;;1.80;;
83055;SDS011;72881;43.514;1.510;2024-01-15T14:09:41;3.00;;;2.10;;
83055;SDS011;72881;43.514;1.510;2024-01-15T14:12:07;2.58;;;2.03;;
83055;SDS011;72881;43.514;1.510;2024-01-15T14:14:32;2.92;;;2.00;;
83055;SDS011;72881;43.514;1.510;2024-01-15T14:16:58;2.45;;;1.80;;
83055;SDS011;72881;43.514;1.510;2024-01-15T14:19:23;2.53;;;1.67;;
83055;SDS011;72881;43.514;1.510;2024-01-15T14:21:49;2.58;;;1.77;;
83055;SDS011;72881;43.514;1.510;2024-01-15T14:24:14;3.10;;;1.60;;
83055;SDS011;72881;43.514;1.510;2024-01-15T14:26:41;2.75;;;1.90;;
83055;SDS011;72881;43.514;1.510;2024-01-15T14:29:06;2.20;;;1.60;;
83055;SDS011;72881;43.514;1.510;2024-01-15T14:31:32;2.70;;;1.95;;
83055;SDS011;72881;43.514;1.510;2024-01-15T14:33:58;2.78;;;1.92;;
83055;SDS011;72881;43.514;1.510;2024-01-15T14:36:24;2.40;;;1.50;;
83055;SDS011;72881;43.514;1.510;2024-01-15T14:38:49;2.85;;;1.63;;
83055;SDS011;72881;43.514;1.510;2024-01-15T14:41:15;3.03;;;2.00;;
83055;SDS011;72881;43.514;1.510;2024-01-15T14:43:41;3.38;;;1.65;;
83055;SDS011;72881;43.514;1.510;2024-01-15T14:46:07;2.17;;;1.50;;
83055;SDS011;72881;43.514;1.510;2024-01-15T14:48:33;3.97;;;1.80;;
83055;SDS011;72881;43.514;1.510;2024-01-15T14:50:58;2.13;;;1.40;;
83055;SDS011;72881;43.514;1.510;2024-01-15T14:53:23;2.63;;;1.55;;
83055;SDS011;72881;43.514;1.510;2024-01-15T14:55:49;2.25;;;1.50;;